Time;durP1;ratioP1;P1;durP2;ratioP2;P2;SDS_P1;SDS_P2;PMS_P1;PMS_P2;Temp;Humidity;BMP_temperature;BMP_pressure;BME280_temperature;BME280_humidity;BME280_pressure;Samples;Min_cycle;Max_cycle;Signal;HPM_P1;HPM_P2
2024/01/12 00:00:29;;;;;;;22.92;7.95;;;;;;;;;;5085429;28;20048;-73
2024/01/12 00:02:55;;;;;;;28.13;8.43;;;;;;;;;;5075535;28;20078;-73
2024/01/12 00:05:21;;;;;;;36.25;8.27;;;;;;;;;;5077333;28;20124;-73
2024/01/12 00:07:47;;;;;;;19.73;8.20;;;;;;;;;;5074538;28;20045;-73
2024/01/12 00:10:13;;;;;;;22.10;7.80;;;;;;;;;;5079917;28;20035;-73
2024/01/12 00:12:40;;;;;;;17.75;8.18;;;;;;;;;;5055927;28;20488;-73
2024/01/12 00:15:06;;;;;;;22.77;8.38;;;;;;;;;;5084760;28;20051;-73
2024/01/12 00:17:32;;;;;;;26.65;8.60;;;;;;;;;;5076161;28;20111;-73
2024/01/12 00:19:59;;;;;;;25.20;8.63;;;;;;;;;;5085849;28;20162;-75
2024/01/12 00:22:25;;;;;;;19.25;8.30;;;;;;;;;;5086946;28;20426;-73
2024/01/12 00:24:52;;;;;;;25.70;9.18;;;;;;;;;;5057607;28;20028;-73
2024/01/12 00:27:18;;;;;;;34.58;8.00;;;;;;;;;;5057474;28;20117;-73
2024/01/12 00:29:44;;;;;;;27.80;9.43;;;;;;;;;;5068621;28;20036;-73
2024/01/12 00:32:11;;;;;;;25.23;8.50;;;;;;;;;;5079616;28;20598;-73
2024/01/12 00:34:38;;;;;;;28.85;8.93;;;;;;;;;;5090326;28;20109;-73
2024/01/12 00:37:04;;;;;;;26.95;10.52;;;;;;;;;;5087388;28;20032;-73
2024/01/12 00:39:30;;;;;;;26.02;9.68;;;;;;;;;;5067681;28;20032;-73
2024/01/12 00:41:56;;;;;;;35.35;10.70;;;;;;;;;;5082201;28;20111;-73
2024/01/12 00:44:22;;;;;;;28.42;9.93;;;;;;;;;;5090050;28;20181;-73
2024/01/12 00:46:50;;;;;;;35.00;9.38;;;;;;;;;;5082867;28;20123;-73
2024/01/12 00:49:19;;;;;;;28.35;8.75;;;;;;;;;;5075847;28;20110;-73
2024/01/12 00:51:46;;;;;;;28.55;9.05;;;;;;;;;;5076459;28;20041;-73
2024/01/12 00:54:12;;;;;;;26.35;9.27;;;;;;;;;;5062805;28;20035;-73
2024/01/12 00:56:38;;;;;;;27.50;9.60;;;;;;;;;;5079546;28;20134;-73
2024/01/12 00:59:05;;;;;;;30.50;8.77;;;;;;;;;;5083302;28;20056;-73
2024/01/12 01:01:31;;;;;;;32.17;8.73;;;;;;;;;;5074694;28;20053;-73
2024/01/12 01:03:57;;;;;;;24.75;8.20;;;;;;;;;;5082223;28;20413;-73
2024/01/12 01:06:23;;;;;;;22.40;7.90;;;;;;;;;;5071868;28;20036;-73
2024/01/12 01:08:49;;;;;;;41.45;8.85;;;;;;;;;;5101986;28;20063;-73
2024/01/12 01:11:15;;;;;;;24.90;8.50;;;;;;;;;;5083847;28;20032;-73
2024/01/12 01:13:41;;;;;;;21.08;7.53;;;;;;;;;;5075970;28;20193;-73
2024/01/12 01:16:08;;;;;;;22.42;7.68;;;;;;;;;;5072811;28;20035;-73
2024/01/12 01:18:34;;;;;;;24.40;7.65;;;;;;;;;;5081884;28;20048;-73
2024/01/12 01:21:00;;;;;;;26.20;8.35;;;;;;;;;;5073811;28;20041;-73
2024/01/12 01:23:26;;;;;;;28.65;8.57;;;;;;;;;;5065940;28;20036;-73
2024/01/12 01:25:53;;;;;;;34.25;8.70;;;;;;;;;;5089882;28;20043;-74
2024/01/12 01:28:20;;;;;;;30.20;8.38;;;;;;;;;;5096811;28;20476;-73
2024/01/12 01:30:46;;;;;;;25.55;9.05;;;;;;;;;;5068775;28;20036;-73
2024/01/12 01:33:12;;;;;;;29.92;9.68;;;;;;;;;;5089698;28;20036;-73
2024/01/12 01:35:38;;;;;;;32.17;8.15;;;;;;;;;;5096672;28;20079;-73
2024/01/12 01:38:05;;;;;;;18.13;7.60;;;;;;;;;;5093637;28;20032;-73
2024/01/12 01:40:31;;;;;;;28.88;8.27;;;;;;;;;;5076961;28;20033;-73
2024/01/12 01:42:57;;;;;;;33.03;9.35;;;;;;;;;;5099985;28;20396;-73
2024/01/12 01:45:23;;;;;;;21.55;8.07;;;;;;;;;;5098970;28;20047;-73
2024/01/12 01:47:49;;;;;;;31.27;7.78;;;;;;;;;;5100880;28;20447;-73
2024/01/12 01:50:16;;;;;;;26.35;7.82;;;;;;;;;;5100831;28;20040;-74
2024/01/12 01:52:43;;;;;;;25.67;7.43;;;;;;;;;;5100519;28;20048;-73
2024/01/12 01:55:11;;;;;;;33.08;8.43;;;;;;;;;;5086364;28;20040;-73
2024/01/12 01:57:39;;;;;;;23.70;7.20;;;;;;;;;;5091611;28;20044;-73
2024/01/12 02:00:05;;;;;;;34.20;7.45;;;;;;;;;;5077648;28;20040;-73
2024/01/12 02:02:32;;;;;;;25.88;6.85;;;;;;;;;;5059795;28;20072;-73
2024/01/12 02:04:58;;;;;;;22.58;7.55;;;;;;;;;;5064622;28;20040;-73
2024/01/12 02:07:24;;;;;;;31.02;7.18;;;;;;;;;;5093517;28;20036;-73
2024/01/12 02:09:50;;;;;;;22.33;7.32;;;;;;;;;;5065221;28;20476;-72
2024/01/12 02:12:16;;;;;;;29.08;7.97;;;;;;;;;;5060363;28;20534;-70
2024/01/12 02:14:42;;;;;;;22.27;7.13;;;;;;;;;;5075974;28;20530;-72
2024/01/12 02:17:09;;;;;;;19.42;7.28;;;;;;;;;;5075645;28;20071;-72
2024/01/12 02:19:35;;;;;;;26.38;7.40;;;;;;;;;;5084834;28;20035;-72
2024/01/12 02:22:01;;;;;;;20.77;7.80;;;;;;;;;;5079280;28;20511;-72
2024/01/12 02:24:27;;;;;;;29.83;7.88;;;;;;;;;;5048271;28;20035;-72
2024/01/12 02:26:53;;;;;;;25.75;7.32;;;;;;;;;;5092751;28;20044;-72
2024/01/12 02:29:20;;;;;;;14.57;7.05;;;;;;;;;;5087365;28;20039;-72
2024/01/12 02:31:46;;;;;;;29.17;7.70;;;;;;;;;;5061162;28;20048;-72
2024/01/12 02:34:12;;;;;;;24.25;8.43;;;;;;;;;;5083430;28;20032;-72
2024/01/12 02:36:38;;;;;;;18.95;8.90;;;;;;;;;;5080929;28;20135;-72
2024/01/12 02:39:05;;;;;;;22.85;7.32;;;;;;;;;;5084869;28;20040;-72
2024/01/12 02:41:31;;;;;;;23.58;7.47;;;;;;;;;;5072038;28;20039;-72
2024/01/12 02:43:57;;;;;;;28.58;8.63;;;;;;;;;;5092019;28;20050;-72
2024/01/12 02:46:24;;;;;;;21.23;7.88;;;;;;;;;;5075249;28;20040;-72
2024/01/12 02:48:50;;;;;;;19.17;7.38;;;;;;;;;;5082077;28;20043;-72
2024/01/12 02:51:16;;;;;;;17.75;6.88;;;;;;;;;;5075021;28;20032;-71
2024/01/12 02:53:42;;;;;;;21.58;7.50;;;;;;;;;;5084571;28;20401;-72
2024/01/12 02:56:11;;;;;;;26.17;7.97;;;;;;;;;;5066423;28;20052;-72
2024/01/12 02:58:37;;;;;;;33.72;7.93;;;;;;;;;;5068108;28;20060;-72
2024/01/12 03:01:03;;;;;;;26.77;7.60;;;;;;;;;;5073637;28;20451;-72
2024/01/12 03:03:29;;;;;;;26.45;7.75;;;;;;;;;;5073724;28;20101;-72
2024/01/12 03:05:55;;;;;;;31.65;7.25;;;;;;;;;;5080610;28;20036;-72
2024/01/12 03:08:21;;;;;;;37.65;6.72;;;;;;;;;;5057242;28;20044;-73
2024/01/12 03:10:47;;;;;;;35.97;7.50;;;;;;;;;;5043030;28;20127;-73
2024/01/12 03:13:13;;;;;;;24.38;6.43;;;;;;;;;;5083216;28;20079;-73
2024/01/12 03:15:39;;;;;;;40.58;8.00;;;;;;;;;;5064761;28;20044;-73
2024/01/12 03:18:05;;;;;;;37.00;6.78;;;;;;;;;;5087898;28;20135;-73
2024/01/12 03:20:31;;;;;;;30.10;6.63;;;;;;;;;;5061801;28;20039;-73
2024/01/12 03:22:57;;;;;;;27.33;6.47;;;;;;;;;;5074785;28;20123;-73
2024/01/12 03:25:24;;;;;;;28.15;6.45;;;;;;;;;;5056823;28;20072;-73
2024/01/12 03:27:50;;;;;;;32.75;7.20;;;;;;;;;;5081670;28;20127;-73
2024/01/12 03:30:16;;;;;;;20.38;5.88;;;;;;;;;;5075755;28;20066;-73
2024/01/12 03:32:45;;;;;;;23.70;6.55;;;;;;;;;;5071065;28;20445;-75
2024/01/12 03:35:11;;;;;;;29.30;6.93;;;;;;;;;;5073332;28;20041;-73
2024/01/12 03:37:37;;;;;;;37.58;7.40;;;;;;;;;;5074106;28;20573;-74
2024/01/12 03:40:04;;;;;;;24.13;7.68;;;;;;;;;;5064433;28;20032;-73
2024/01/12 03:42:30;;;;;;;33.10;7.82;;;;;;;;;;5063916;28;20044;-73
2024/01/12 03:44:56;;;;;;;25.65;6.20;;;;;;;;;;5086978;28;20032;-72
2024/01/12 03:47:22;;;;;;;30.30;6.78;;;;;;;;;;5089217;28;20040;-73
2024/01/12 03:49:48;;;;;;;19.73;6.13;;;;;;;;;;5069100;28;20070;-72
2024/01/12 03:52:14;;;;;;;19.40;6.25;;;;;;;;;;5101464;28;20139;-72
2024/01/12 03:54:40;;;;;;;30.45;6.25;;;;;;;;;;5080121;28;20037;-72
2024/01/12 03:57:07;;;;;;;21.10;6.95;;;;;;;;;;5074382;28;20028;-73
2024/01/12 03:59:33;;;;;;;51.70;7.95;;;;;;;;;;5091128;28;20043;-73
2024/01/12 04:01:59;;;;;;;30.83;6.40;;;;;;;;;;5076701;28;20048;-72
2024/01/12 04:04:25;;;;;;;27.08;6.70;;;;;;;;;;5056334;28;20431;-73
2024/01/12 04:06:51;;;;;;;29.15;6.80;;;;;;;;;;5064216;28;20115;-73
2024/01/12 04:09:17;;;;;;;30.65;8.00;;;;;;;;;;5072635;28;20519;-73
2024/01/12 04:11:43;;;;;;;28.08;6.10;;;;;;;;;;5070700;28;20028;-73
2024/01/12 04:14:09;;;;;;;33.50;6.35;;;;;;;;;;5072515;28;20072;-73
2024/01/12 04:16:35;;;;;;;30.48;7.22;;;;;;;;;;5055807;28;20448;-73
2024/01/12 04:19:01;;;;;;;30.38;7.28;;;;;;;;;;5066994;28;20090;-72
2024/01/12 04:21:27;;;;;;;31.58;7.35;;;;;;;;;;5074097;28;20048;-73
2024/01/12 04:23:53;;;;;;;30.60;6.20;;;;;;;;;;5073767;28;20043;-73
2024/01/12 04:26:19;;;;;;;30.67;6.93;;;;;;;;;;5083407;28;20376;-73
2024/01/12 04:28:45;;;;;;;38.72;6.93;;;;;;;;;;5063338;28;20032;-73
2024/01/12 04:31:11;;;;;;;26.38;5.45;;;;;;;;;;5080087;28;20043;-73
2024/01/12 04:33:37;;;;;;;27.40;6.35;;;;;;;;;;5076347;28;20047;-73
2024/01/12 04:36:06;;;;;;;28.98;6.55;;;;;;;;;;5072550;28;20039;-73
2024/01/12 04:38:32;;;;;;;31.38;5.95;;;;;;;;;;5067467;28;20454;-74
2024/01/12 04:40:58;;;;;;;38.88;6.63;;;;;;;;;;5065852;28;20032;-74
2024/01/12 04:43:24;;;;;;;44.05;5.90;;;;;;;;;;5077037;28;20036;-74
2024/01/12 04:45:51;;;;;;;46.70;6.15;;;;;;;;;;5061767;28;20480;-74
2024/01/12 04:48:17;;;;;;;38.60;5.75;;;;;;;;;;5059667;28;20045;-74
2024/01/12 04:50:43;;;;;;;40.83;7.43;;;;;;;;;;5073101;28;20113;-73
2024/01/12 04:53:09;;;;;;;37.88;5.82;;;;;;;;;;5081682;28;20036;-73
2024/01/12 04:55:35;;;;;;;49.30;6.68;;;;;;;;;;5082782;28;20044;-73
2024/01/12 04:58:03;;;;;;;28.92;5.43;;;;;;;;;;5061470;28;20036;-75
2024/01/12 05:00:30;;;;;;;37.80;6.25;;;;;;;;;;5072964;28;20472;-75
2024/01/12 05:02:56;;;;;;;40.90;5.72;;;;;;;;;;5083160;28;20048;-74
2024/01/12 05:05:22;;;;;;;33.42;5.97;;;;;;;;;;5084881;28;20086;-74
2024/01/12 05:07:48;;;;;;;38.80;7.00;;;;;;;;;;5058644;28;20040;-74
2024/01/12 05:10:14;;;;;;;45.22;6.70;;;;;;;;;;5088138;28;20041;-75
2024/01/12 05:12:40;;;;;;;38.97;7.35;;;;;;;;;;5099362;28;20068;-75
2024/01/12 05:15:07;;;;;;;36.90;5.30;;;;;;;;;;5063391;28;20047;-75
2024/01/12 05:17:33;;;;;;;39.30;6.32;;;;;;;;;;5075157;28;20102;-72
2024/01/12 05:20:06;;;;;;;50.70;7.38;;;;;;;;;;5100601;28;20021;-72
2024/01/12 05:22:32;;;;;;;48.05;5.90;;;;;;;;;;5081977;28;20107;-72
2024/01/12 05:24:58;;;;;;;39.25;7.28;;;;;;;;;;5070382;28;20052;-72
2024/01/12 05:27:24;;;;;;;43.63;6.18;;;;;;;;;;5081795;28;20036;-72
2024/01/12 05:29:50;;;;;;;33.20;5.95;;;;;;;;;;5067799;28;20063;-71
2024/01/12 05:32:16;;;;;;;42.38;5.47;;;;;;;;;;5069734;28;20082;-72
2024/01/12 05:34:42;;;;;;;36.17;5.70;;;;;;;;;;5061914;28;20044;-74
2024/01/12 05:37:08;;;;;;;43.65;5.55;;;;;;;;;;5063362;28;20037;-74
2024/01/12 05:39:34;;;;;;;38.25;6.72;;;;;;;;;;5082145;28;20496;-74
2024/01/12 05:42:00;;;;;;;50.13;6.60;;;;;;;;;;5080554;28;20036;-74
2024/01/12 05:44:26;;;;;;;37.30;6.03;;;;;;;;;;5073700;28;20069;-74
2024/01/12 05:46:53;;;;;;;42.90;4.97;;;;;;;;;;5059936;28;20468;-74
2024/01/12 05:49:19;;;;;;;54.88;7.50;;;;;;;;;;5078355;28;20040;-72
2024/01/12 05:51:47;;;;;;;41.67;5.85;;;;;;;;;;5072690;28;20165;-71
2024/01/12 05:54:13;;;;;;;45.55;6.18;;;;;;;;;;5067231;28;20086;-72
2024/01/12 05:56:39;;;;;;;45.88;6.70;;;;;;;;;;5088292;28;20039;-71
2024/01/12 05:59:05;;;;;;;45.25;6.35;;;;;;;;;;5061744;28;20040;-72
2024/01/12 06:01:31;;;;;;;40.50;4.90;;;;;;;;;;5054548;28;20138;-72
2024/01/12 06:03:57;;;;;;;37.63;5.15;;;;;;;;;;5052571;28;20043;-72
2024/01/12 06:06:24;;;;;;;39.65;4.60;;;;;;;;;;5065824;28;20068;-72
2024/01/12 06:08:50;;;;;;;54.63;5.93;;;;;;;;;;5072441;28;20101;-72
2024/01/12 06:11:17;;;;;;;54.15;5.68;;;;;;;;;;5041015;28;20039;-72
2024/01/12 06:13:43;;;;;;;50.17;5.60;;;;;;;;;;5063164;28;20043;-72
2024/01/12 06:16:09;;;;;;;45.50;4.80;;;;;;;;;;5091414;28;20032;-72
2024/01/12 06:18:35;;;;;;;37.38;5.35;;;;;;;;;;5089438;28;20044;-72
2024/01/12 06:21:01;;;;;;;33.17;5.72;;;;;;;;;;5057930;28;20036;-72
2024/01/12 06:23:27;;;;;;;56.10;5.82;;;;;;;;;;5070124;28;20048;-72
2024/01/12 06:25:53;;;;;;;47.17;5.07;;;;;;;;;;5084296;28;20046;-72
2024/01/12 06:28:19;;;;;;;55.58;6.50;;;;;;;;;;5089517;28;20039;-75
2024/01/12 06:30:45;;;;;;;41.95;4.65;;;;;;;;;;5076183;28;20381;-75
2024/01/12 06:33:16;;;;;;;42.72;4.82;;;;;;;;;;5085481;28;20190;-75
2024/01/12 06:35:42;;;;;;;47.25;5.63;;;;;;;;;;5060092;28;20068;-72
2024/01/12 06:38:10;;;;;;;32.80;6.07;;;;;;;;;;5077938;28;20074;-72
2024/01/12 06:40:36;;;;;;;34.03;4.40;;;;;;;;;;5076911;28;20469;-72
2024/01/12 06:43:02;;;;;;;40.55;4.05;;;;;;;;;;5065639;28;20503;-72
2024/01/12 06:45:28;;;;;;;32.80;3.97;;;;;;;;;;5075344;28;20043;-74
2024/01/12 06:47:54;;;;;;;51.97;5.28;;;;;;;;;;5081698;28;20050;-74
2024/01/12 06:50:20;;;;;;;42.38;4.47;;;;;;;;;;5074826;28;20036;-74
2024/01/12 06:52:46;;;;;;;51.08;6.05;;;;;;;;;;5067923;28;20036;-75
2024/01/12 06:55:12;;;;;;;31.00;5.50;;;;;;;;;;5085302;28;20135;-75
2024/01/12 06:57:38;;;;;;;42.63;6.03;;;;;;;;;;5085538;28;20076;-75
2024/01/12 07:00:06;;;;;;;26.65;4.38;;;;;;;;;;5060543;28;20032;-75
2024/01/12 07:02:34;;;;;;;51.60;8.38;;;;;;;;;;5109227;28;20059;-75
2024/01/12 07:05:00;;;;;;;37.88;3.83;;;;;;;;;;5084744;28;20044;-75
2024/01/12 07:07:26;;;;;;;35.78;4.90;;;;;;;;;;5041929;28;20047;-75
2024/01/12 07:09:52;;;;;;;36.67;4.63;;;;;;;;;;5074600;28;20052;-76
2024/01/12 07:12:18;;;;;;;28.20;3.17;;;;;;;;;;5043781;28;20044;-75
2024/01/12 07:14:44;;;;;;;33.28;4.25;;;;;;;;;;5083402;28;20085;-75
2024/01/12 07:17:10;;;;;;;34.90;3.80;;;;;;;;;;5068783;28;20047;-75
2024/01/12 07:19:36;;;;;;;31.27;4.50;;;;;;;;;;5065065;28;20525;-75
2024/01/12 07:22:03;;;;;;;32.85;5.57;;;;;;;;;;5076144;28;20055;-75
2024/01/12 07:24:29;;;;;;;36.17;4.18;;;;;;;;;;5084111;28;20393;-75
2024/01/12 07:26:55;;;;;;;41.17;4.50;;;;;;;;;;5084680;28;20078;-75
2024/01/12 07:29:22;;;;;;;39.30;4.85;;;;;;;;;;5079114;28;20051;-75
2024/01/12 07:31:49;;;;;;;30.33;3.67;;;;;;;;;;5057229;28;20043;-75
2024/01/12 07:34:17;;;;;;;26.88;3.92;;;;;;;;;;5059650;28;20043;-75
2024/01/12 07:36:44;;;;;;;22.52;3.22;;;;;;;;;;5054572;28;20093;-75
2024/01/12 07:39:10;;;;;;;35.15;4.53;;;;;;;;;;5081310;28;20044;-75
2024/01/12 07:41:36;;;;;;;37.05;4.47;;;;;;;;;;5082494;28;20093;-75
2024/01/12 07:44:02;;;;;;;32.53;5.65;;;;;;;;;;5077871;28;20040;-75
2024/01/12 07:46:28;;;;;;;39.63;4.72;;;;;;;;;;5075643;28;20063;-75
2024/01/12 07:48:56;;;;;;;42.20;4.78;;;;;;;;;;5080257;28;20041;-75
2024/01/12 07:51:22;;;;;;;49.70;4.82;;;;;;;;;;5063468;28;20042;-75
2024/01/12 07:53:49;;;;;;;36.97;5.78;;;;;;;;;;5077382;28;20032;-72
2024/01/12 07:56:15;;;;;;;39.17;4.22;;;;;;;;;;5090160;28;20575;-72
2024/01/12 07:58:41;;;;;;;45.78;5.45;;;;;;;;;;5063816;28;20065;-72
2024/01/12 08:01:12;;;;;;;25.80;4.20;;;;;;;;;;5072967;28;20036;-72
2024/01/12 08:03:39;;;;;;;50.50;6.20;;;;;;;;;;5060512;28;20048;-72
2024/01/12 08:06:05;;;;;;;47.60;6.45;;;;;;;;;;5056167;28;20040;-72
2024/01/12 08:08:31;;;;;;;49.10;4.82;;;;;;;;;;5072267;28;20114;-72
2024/01/12 08:10:57;;;;;;;42.88;5.85;;;;;;;;;;5068898;28;20046;-72
2024/01/12 08:13:24;;;;;;;39.22;5.28;;;;;;;;;;5078602;28;20036;-72
2024/01/12 08:15:50;;;;;;;31.67;4.88;;;;;;;;;;5084058;28;20036;-74
2024/01/12 08:18:16;;;;;;;24.38;3.97;;;;;;;;;;5084244;28;20610;-72
2024/01/12 08:20:43;;;;;;;47.25;4.88;;;;;;;;;;5081369;28;20165;-72
2024/01/12 08:23:09;;;;;;;44.13;5.10;;;;;;;;;;5092959;28;20047;-72
2024/01/12 08:25:35;;;;;;;34.13;4.63;;;;;;;;;;5060578;28;20437;-72
2024/01/12 08:28:01;;;;;;;41.05;6.03;;;;;;;;;;5071692;28;20045;-72
2024/01/12 08:30:27;;;;;;;28.48;4.00;;;;;;;;;;5071752;28;20269;-72
2024/01/12 08:32:54;;;;;;;36.00;4.75;;;;;;;;;;5055516;28;20048;-72
2024/01/12 08:35:20;;;;;;;39.75;3.63;;;;;;;;;;5072486;28;20497;-72
2024/01/12 08:37:46;;;;;;;45.00;6.93;;;;;;;;;;5073113;28;20052;-72
2024/01/12 08:40:12;;;;;;;30.98;4.10;;;;;;;;;;5071973;28;20040;-72
2024/01/12 08:42:39;;;;;;;25.15;3.83;;;;;;;;;;5057431;28;20045;-74
2024/01/12 08:45:06;;;;;;;20.55;4.35;;;;;;;;;;5075134;28;20075;-72
2024/01/12 08:47:32;;;;;;;31.90;4.38;;;;;;;;;;5075667;28;20052;-72
2024/01/12 08:49:58;;;;;;;30.80;3.47;;;;;;;;;;5084787;28;20044;-72
2024/01/12 08:52:24;;;;;;;33.03;4.47;;;;;;;;;;5075550;28;20092;-72
2024/01/12 08:54:50;;;;;;;36.88;4.03;;;;;;;;;;5072869;28;20051;-72
2024/01/12 08:57:16;;;;;;;32.47;3.97;;;;;;;;;;5091750;28;20047;-72
2024/01/12 08:59:42;;;;;;;34.72;4.18;;;;;;;;;;5094559;28;20032;-74
2024/01/12 09:02:09;;;;;;;39.28;5.88;;;;;;;;;;5085187;28;20617;-74
2024/01/12 09:04:35;;;;;;;30.73;3.88;;;;;;;;;;5075219;28;20146;-74
2024/01/12 09:07:01;;;;;;;44.20;6.00;;;;;;;;;;5091086;28;20051;-73
2024/01/12 09:09:27;;;;;;;31.75;4.75;;;;;;;;;;5074482;28;20127;-73
2024/01/12 09:11:54;;;;;;;38.90;4.03;;;;;;;;;;5101036;28;20040;-73
2024/01/12 09:14:20;;;;;;;25.92;3.65;;;;;;;;;;5091746;28;20036;-74
2024/01/12 09:16:46;;;;;;;34.28;4.30;;;;;;;;;;5087032;28;20036;-75
2024/01/12 09:19:12;;;;;;;40.60;4.38;;;;;;;;;;5097783;28;20065;-75
2024/01/12 09:21:38;;;;;;;30.90;4.03;;;;;;;;;;5090668;28;20047;-75
2024/01/12 09:24:05;;;;;;;31.63;4.35;;;;;;;;;;5072723;28;20048;-74
2024/01/12 09:26:31;;;;;;;29.13;4.00;;;;;;;;;;5072110;28;20499;-74
2024/01/12 09:28:57;;;;;;;47.30;6.75;;;;;;;;;;5081380;28;20047;-74
2024/01/12 09:31:23;;;;;;;41.00;5.95;;;;;;;;;;5072237;28;20396;-75
2024/01/12 09:33:51;;;;;;;36.90;4.25;;;;;;;;;;5071509;28;20044;-74
2024/01/12 09:36:17;;;;;;;34.60;4.32;;;;;;;;;;5072031;28;20044;-74
2024/01/12 09:38:43;;;;;;;40.97;5.70;;;;;;;;;;5055367;28;20095;-74
2024/01/12 09:41:10;;;;;;;44.35;5.82;;;;;;;;;;5080438;28;20032;-74
2024/01/12 09:43:37;;;;;;;38.70;6.32;;;;;;;;;;5089403;28;20036;-74
2024/01/12 09:46:05;;;;;;;34.28;4.18;;;;;;;;;;5071771;28;20094;-74
2024/01/12 09:48:31;;;;;;;39.60;5.25;;;;;;;;;;5089480;28;20072;-74
2024/01/12 09:50:57;;;;;;;42.28;5.85;;;;;;;;;;5075586;28;20130;-74
2024/01/12 09:53:23;;;;;;;44.15;4.53;;;;;;;;;;5091565;28;20036;-74
2024/01/12 09:55:50;;;;;;;45.28;5.78;;;;;;;;;;5076916;28;20537;-74
2024/01/12 09:58:17;;;;;;;38.08;5.78;;;;;;;;;;5070844;28;20121;-74
2024/01/12 10:00:44;;;;;;;52.47;6.15;;;;;;;;;;5076258;28;20484;-74
2024/01/12 10:03:11;;;;;;;33.88;4.20;;;;;;;;;;5099108;28;20053;-74
2024/01/12 10:05:37;;;;;;;38.72;5.57;;;;;;;;;;5076685;28;20067;-74
2024/01/12 10:08:13;;;;;;;54.40;4.18;;;;;;;;;;5083146;28;20045;-74
2024/01/12 10:10:40;;;;;;;32.75;3.92;;;;;;;;;;5078050;28;20051;-74
2024/01/12 10:13:06;;;;;;;31.30;3.67;;;;;;;;;;5092817;28;20047;-75
2024/01/12 10:15:39;;;;;;;25.00;3.83;;;;;;;;;;5081748;28;20041;-75
2024/01/12 10:18:06;;;;;;;38.95;4.95;;;;;;;;;;5074913;28;20462;-72
2024/01/12 10:20:35;;;;;;;28.00;3.67;;;;;;;;;;5085164;28;20037;-72
2024/01/12 10:23:03;;;;;;;33.15;4.70;;;;;;;;;;5064132;28;20119;-72
2024/01/12 10:25:29;;;;;;;41.80;4.28;;;;;;;;;;5078059;28;20044;-72
2024/01/12 10:27:56;;;;;;;24.83;3.58;;;;;;;;;;5085577;28;20081;-73
2024/01/12 10:30:22;;;;;;;26.55;3.70;;;;;;;;;;5086842;28;20036;-74
2024/01/12 10:32:52;;;;;;;40.45;3.78;;;;;;;;;;5083882;28;20048;-74
2024/01/12 10:35:21;;;;;;;36.28;4.28;;;;;;;;;;5075050;28;20478;-74
2024/01/12 10:37:48;;;;;;;34.03;4.05;;;;;;;;;;5087223;28;20077;-74
2024/01/12 10:40:18;;;;;;;34.13;4.43;;;;;;;;;;5080280;28;20396;-74
2024/01/12 10:42:51;;;;;;;40.65;4.60;;;;;;;;;;5064033;28;20101;-74
2024/01/12 10:45:21;;;;;;;31.58;4.82;;;;;;;;;;5059541;28;20036;-74
2024/01/12 10:48:02;;;;;;;42.08;3.80;;;;;;;;;;5058679;28;20059;-74
2024/01/12 10:50:30;;;;;;;24.98;4.57;;;;;;;;;;5075824;28;20036;-74
2024/01/12 10:52:59;;;;;;;44.17;3.60;;;;;;;;;;5076282;28;20039;-74
2024/01/12 10:55:30;;;;;;;40.78;4.68;;;;;;;;;;5110776;28;20512;-74
2024/01/12 10:57:57;;;;;;;34.90;4.00;;;;;;;;;;5073925;28;20043;-74
2024/01/12 11:00:24;;;;;;;48.72;5.07;;;;;;;;;;5057169;28;20041;-74
2024/01/12 11:02:50;;;;;;;44.55;4.72;;;;;;;;;;5094553;28;20056;-74
2024/01/12 11:05:17;;;;;;;41.35;5.22;;;;;;;;;;5111504;28;20128;-74
2024/01/12 11:07:43;;;;;;;31.75;4.35;;;;;;;;;;5091877;28;20358;-74
2024/01/12 11:10:10;;;;;;;29.63;4.45;;;;;;;;;;5057431;28;20040;-74
2024/01/12 11:12:37;;;;;;;33.55;5.10;;;;;;;;;;5075641;28;20131;-75
2024/01/12 11:15:04;;;;;;;31.77;4.22;;;;;;;;;;5094469;28;20047;-73
2024/01/12 11:17:31;;;;;;;26.85;4.13;;;;;;;;;;5077613;28;20115;-73
2024/01/12 11:20:10;;;;;;;29.95;4.25;;;;;;;;;;5108661;28;20044;-73
2024/01/12 11:22:37;;;;;;;43.13;3.92;;;;;;;;;;5077260;28;20101;-72
2024/01/12 11:25:04;;;;;;;43.80;5.82;;;;;;;;;;5062948;28;20032;-73
2024/01/12 11:27:34;;;;;;;31.52;4.13;;;;;;;;;;5063181;28;20078;-72
2024/01/12 11:30:01;;;;;;;44.63;5.90;;;;;;;;;;5045401;28;20106;-72
2024/01/12 11:32:30;;;;;;;33.17;5.40;;;;;;;;;;5077272;28;20040;-73
2024/01/12 11:35:16;;;;;;;28.20;4.03;;;;;;;;;;5078318;28;20047;-72
2024/01/12 11:37:44;;;;;;;32.30;3.88;;;;;;;;;;5058732;28;20111;-72
2024/01/12 11:40:11;;;;;;;25.08;4.75;;;;;;;;;;5083422;28;20036;-73
2024/01/12 11:42:41;;;;;;;22.08;3.30;;;;;;;;;;5069669;28;20128;-74
2024/01/12 11:45:09;;;;;;;31.48;3.75;;;;;;;;;;5084976;28;20032;-74
2024/01/12 11:47:35;;;;;;;34.08;4.90;;;;;;;;;;5071086;28;20511;-74
2024/01/12 11:50:03;;;;;;;45.35;4.25;;;;;;;;;;5082172;28;20487;-76
2024/01/12 11:52:29;;;;;;;36.20;4.63;;;;;;;;;;5090190;28;20055;-74
2024/01/12 11:54:55;;;;;;;16.27;4.85;;;;;;;;;;5086931;28;20043;-71
2024/01/12 11:57:21;;;;;;;35.20;4.43;;;;;;;;;;5071937;28;20128;-71
2024/01/12 11:59:47;;;;;;;27.52;4.10;;;;;;;;;;5085050;28;20393;-75
2024/01/12 12:02:13;;;;;;;36.50;4.80;;;;;;;;;;5072136;28;20044;-72
2024/01/12 12:04:39;;;;;;;35.72;4.70;;;;;;;;;;5084701;28;20043;-73
2024/01/12 12:07:06;;;;;;;36.10;5.22;;;;;;;;;;5040218;28;20393;-74
2024/01/12 12:09:32;;;;;;;35.15;5.40;;;;;;;;;;5040485;28;20159;-74
2024/01/12 12:11:58;;;;;;;29.50;4.78;;;;;;;;;;5089774;28;20074;-73
2024/01/12 12:14:24;;;;;;;30.75;5.57;;;;;;;;;;5090081;28;20072;-72
2024/01/12 12:16:50;;;;;;;39.90;4.78;;;;;;;;;;5057218;28;20048;-72
2024/01/12 12:19:16;;;;;;;21.85;4.72;;;;;;;;;;5073704;28;20037;-72
2024/01/12 12:21:42;;;;;;;33.05;4.30;;;;;;;;;;5091170;28;20040;-74
2024/01/12 12:24:08;;;;;;;30.35;3.92;;;;;;;;;;5111016;28;20054;-73
2024/01/12 12:26:35;;;;;;;31.50;4.10;;;;;;;;;;5095162;28;20046;-73
2024/01/12 12:29:01;;;;;;;29.35;4.03;;;;;;;;;;5112538;28;20135;-74
2024/01/12 12:31:29;;;;;;;23.33;3.17;;;;;;;;;;5114626;28;20162;-75
2024/01/12 12:33:55;;;;;;;35.15;5.97;;;;;;;;;;5093256;28;20055;-75
2024/01/12 12:36:22;;;;;;;42.85;5.40;;;;;;;;;;5099028;28;20619;-75
2024/01/12 12:38:48;;;;;;;35.50;4.18;;;;;;;;;;5080747;28;20040;-75
2024/01/12 12:41:15;;;;;;;42.55;4.88;;;;;;;;;;5092676;28;20032;-76
2024/01/12 12:43:41;;;;;;;45.03;5.50;;;;;;;;;;5091119;28;20049;-75
2024/01/12 12:46:07;;;;;;;30.02;4.47;;;;;;;;;;5087106;28;20039;-76
2024/01/12 12:48:34;;;;;;;42.03;4.97;;;;;;;;;;5061073;28;20528;-76
2024/01/12 12:51:00;;;;;;;56.60;5.55;;;;;;;;;;5086591;28;20072;-76
2024/01/12 12:53:26;;;;;;;43.65;5.95;;;;;;;;;;5073439;28;20052;-76
2024/01/12 12:55:52;;;;;;;36.00;4.72;;;;;;;;;;5070801;28;20553;-76
2024/01/12 12:58:19;;;;;;;41.17;5.65;;;;;;;;;;5054547;28;20401;-76
2024/01/12 13:00:46;;;;;;;39.42;6.45;;;;;;;;;;5071751;28;20558;-76
2024/01/12 13:03:12;;;;;;;29.95;5.20;;;;;;;;;;5071678;28;20381;-76
2024/01/12 13:05:38;;;;;;;30.77;4.15;;;;;;;;;;5071684;28;20132;-76
2024/01/12 13:08:07;;;;;;;40.50;4.65;;;;;;;;;;5055557;28;20063;-76
2024/01/12 13:10:35;;;;;;;38.78;4.03;;;;;;;;;;5078404;28;20040;-76
2024/01/12 13:13:01;;;;;;;38.78;6.07;;;;;;;;;;5109369;28;20066;-76
2024/01/12 13:15:27;;;;;;;42.42;5.80;;;;;;;;;;5066452;28;20055;-76
2024/01/12 13:17:59;;;;;;;26.58;4.15;;;;;;;;;;5063345;28;20048;-76
2024/01/12 13:20:28;;;;;;;24.67;4.25;;;;;;;;;;5071505;28;20090;-76
2024/01/12 13:22:54;;;;;;;23.60;3.45;;;;;;;;;;5071107;28;20044;-75
2024/01/12 13:25:20;;;;;;;24.92;3.20;;;;;;;;;;5076591;28;20403;-76
2024/01/12 13:27:47;;;;;;;10.73;2.72;;;;;;;;;;5108924;28;20054;-76
2024/01/12 13:30:14;;;;;;;9.75;2.88;;;;;;;;;;5089591;28;20134;-76
2024/01/12 13:32:40;;;;;;;12.25;2.13;;;;;;;;;;5055253;28;20040;-76
2024/01/12 13:35:06;;;;;;;14.02;2.20;;;;;;;;;;5072867;28;20040;-76
2024/01/12 13:37:33;;;;;;;12.50;2.50;;;;;;;;;;5091837;28;20044;-75
2024/01/12 13:39:59;;;;;;;10.23;1.83;;;;;;;;;;5108877;28;20048;-76
2024/01/12 13:42:25;;;;;;;18.40;2.42;;;;;;;;;;5092113;28;20093;-77
2024/01/12 13:44:52;;;;;;;15.13;2.90;;;;;;;;;;5091842;28;20042;-76
2024/01/12 13:47:19;;;;;;;13.10;3.22;;;;;;;;;;5091872;28;20043;-76
2024/01/12 13:49:45;;;;;;;19.60;2.95;;;;;;;;;;5075455;28;20043;-76
2024/01/12 13:52:12;;;;;;;12.55;1.98;;;;;;;;;;5071290;28;20036;-76
2024/01/12 13:54:38;;;;;;;17.40;2.30;;;;;;;;;;5071404;28;20120;-76
2024/01/12 13:57:04;;;;;;;16.85;2.70;;;;;;;;;;5054178;28;20041;-77
2024/01/12 13:59:31;;;;;;;10.10;2.72;;;;;;;;;;5070925;28;20037;-76
2024/01/12 14:01:57;;;;;;;7.68;2.10;;;;;;;;;;5071098;28;20056;-76
2024/01/12 14:04:23;;;;;;;15.48;2.00;;;;;;;;;;5070540;28;20045;-76
2024/01/12 14:06:49;;;;;;;22.40;2.97;;;;;;;;;;5068924;28;20033;-75
2024/01/12 14:09:16;;;;;;;14.07;2.42;;;;;;;;;;5071407;28;20045;-76
2024/01/12 14:11:43;;;;;;;13.60;2.22;;;;;;;;;;5071222;28;20036;-75
2024/01/12 14:14:09;;;;;;;9.80;1.90;;;;;;;;;;5055106;28;20041;-72
2024/01/12 14:16:35;;;;;;;8.38;2.05;;;;;;;;;;5054515;28;20037;-71
2024/01/12 14:19:01;;;;;;;11.07;2.58;;;;;;;;;;5071251;28;20080;-71
2024/01/12 14:21:27;;;;;;;11.57;2.08;;;;;;;;;;5072087;28;20040;-71
2024/01/12 14:23:53;;;;;;;22.67;3.38;;;;;;;;;;5108345;28;20046;-72
2024/01/12 14:26:19;;;;;;;7.72;2.05;;;;;;;;;;5095863;28;20040;-72